createdAt,value
2018-06-23T10:23:51.337Z,72.60
2018-06-23T10:26:19.615Z,72.70
2018-06-23T10:28:47.851Z,72.80
2018-06-23T10:31:19.295Z,72.30
2018-06-23T10:33:51.025Z,71.80
2018-06-23T10:36:21.329Z,71.30
2018-06-23T10:38:49.792Z,71.30
2018-06-23T10:41:18.161Z,69.90
2018-06-23T10:43:47.625Z,68.90
2018-06-23T10:46:16.517Z,69.90
2018-06-23T10:48:44.766Z,68.90
2018-06-23T10:51:13.659Z,64.80
2018-06-23T10:53:41.854Z,65.60
2018-06-23T10:56:16.889Z,66.90
2018-06-23T10:58:48.875Z,69.90
2018-06-23T11:01:22.862Z,70.40
2018-06-23T11:03:56.381Z,70.00
2018-06-23T11:06:33.488Z,70.00
2018-06-23T11:09:02.284Z,67.20
2018-06-23T11:11:30.479Z,67.70
2018-06-23T11:13:58.664Z,66.40
2018-06-23T11:16:28.742Z,66.60
2018-06-23T11:19:02.958Z,67.00
2018-06-23T11:21:32.418Z,66.90
2018-06-23T11:24:01.794Z,67.10
2018-06-23T11:26:30.653Z,69.30
2018-06-23T11:28:59.126Z,70.20
2018-06-23T11:31:30.104Z,70.50
2018-06-23T11:33:58.342Z,68.30
2018-06-23T11:36:26.538Z,65.30
2018-06-23T11:38:54.733Z,66.90
2018-06-23T11:41:22.977Z,67.30
2018-06-23T11:43:51.160Z,64.00
2018-06-23T11:46:20.951Z,64.60
2018-06-23T11:48:49.162Z,64.40
2018-06-23T11:51:17.437Z,63.20
2018-06-23T11:53:45.613Z,64.30
2018-06-23T11:56:15.279Z,64.70
2018-06-23T12:01:15.474Z,66.70
2018-06-23T12:03:43.742Z,67.80
2018-06-23T12:06:12.025Z,68.60
2018-06-23T12:08:41.394Z,66.80
2018-06-23T12:11:09.713Z,65.10
2018-06-23T12:13:41.992Z,65.70
2018-06-23T12:16:10.472Z,65.40
2018-06-23T12:18:44.853Z,65.50
2018-06-23T12:21:15.500Z,64.90
2018-06-23T12:23:43.813Z,63.50
2018-06-23T12:26:12.018Z,64.30
2018-06-23T12:28:40.337Z,62.10
2018-06-23T12:31:08.614Z,61.00
2018-06-23T12:33:36.854Z,62.70
2018-06-23T12:36:05.063Z,62.20
2018-06-23T12:38:33.565Z,63.40
2018-06-23T12:41:01.862Z,61.10
2018-06-23T12:43:30.278Z,60.40
2018-06-23T12:45:58.727Z,60.70
2018-06-23T12:48:27.214Z,62.40
2018-06-23T12:50:55.437Z,60.70
2018-06-23T12:53:23.725Z,60.60
2018-06-23T12:55:51.955Z,62.70
2018-06-23T12:58:20.181Z,63.20
2018-06-23T13:00:48.407Z,64.10
2018-06-23T13:03:16.617Z,65.00
2018-06-23T13:05:44.960Z,64.90
2018-06-23T13:08:13.161Z,64.90
2018-06-23T13:10:41.373Z,62.90
2018-06-23T13:13:09.608Z,63.20
2018-06-23T13:15:37.867Z,63.40
2018-06-23T13:18:06.976Z,61.60
2018-06-23T13:20:35.384Z,62.50
2018-06-23T13:23:03.762Z,62.30
2018-06-23T13:25:32.274Z,60.90
2018-06-23T13:28:00.549Z,59.80
2018-06-23T13:30:28.783Z,61.60
2018-06-23T13:32:57.082Z,62.00
2018-06-23T13:35:25.726Z,62.40
2018-06-23T13:37:53.946Z,61.60
2018-06-23T13:40:22.149Z,61.60
2018-06-23T13:42:50.473Z,61.20
2018-06-23T13:45:19.342Z,59.90
2018-06-23T13:47:47.540Z,60.70
2018-06-23T13:50:15.737Z,60.30
2018-06-23T13:52:43.988Z,59.50
2018-06-23T13:55:12.193Z,60.00
2018-06-23T13:57:40.415Z,58.70
2018-06-23T14:00:09.470Z,59.40
2018-06-23T14:05:05.825Z,59.90
2018-06-23T14:10:02.054Z,59.80
2018-06-23T14:12:30.333Z,60.50
2018-06-23T14:14:58.569Z,59.80
2018-06-23T14:17:26.758Z,59.80
2018-06-23T14:19:55.005Z,60.30
2018-06-23T14:22:23.306Z,60.10
2018-06-23T14:24:51.531Z,60.30
2018-06-23T14:27:19.753Z,59.60
2018-06-23T14:29:47.961Z,60.00
2018-06-23T14:32:16.272Z,59.40
2018-06-23T14:34:44.491Z,60.40
2018-06-23T14:37:12.754Z,60.20
2018-06-23T14:39:40.932Z,60.80
2018-06-23T14:42:09.121Z,59.80
2018-06-23T14:44:37.372Z,60.80
2018-06-23T14:47:05.605Z,60.10
2018-06-23T14:49:33.838Z,59.50
2018-06-23T14:52:02.102Z,59.00
2018-06-23T14:54:30.330Z,57.80
2018-06-23T14:56:58.582Z,58.50
2018-06-23T14:59:26.813Z,56.90
2018-06-23T15:01:54.985Z,56.90
2018-06-23T15:04:23.281Z,57.50
2018-06-23T15:06:51.547Z,57.60
2018-06-23T15:09:31.150Z,58.30
2018-06-23T15:12:10.790Z,57.90
2018-06-23T15:19:41.489Z,57.80
2018-06-23T15:22:09.705Z,57.80
2018-06-23T15:24:37.922Z,57.90
2018-06-23T15:27:06.358Z,57.30
2018-06-23T15:29:34.710Z,56.90
2018-06-23T15:32:03.010Z,57.40
2018-06-23T15:34:31.260Z,57.60
2018-06-23T15:36:59.541Z,57.40
2018-06-23T15:39:27.789Z,58.60
2018-06-23T15:41:56.188Z,57.90
2018-06-23T15:44:24.486Z,57.30
2018-06-23T15:46:53.000Z,57.60
2018-06-23T15:49:21.197Z,57.90
2018-06-23T15:51:49.458Z,57.20
2018-06-23T15:54:18.213Z,57.40
2018-06-23T15:56:46.474Z,57.50
2018-06-23T15:59:15.566Z,57.60
2018-06-23T16:01:43.761Z,58.10
2018-06-23T16:04:11.993Z,57.40
2018-06-23T16:06:40.240Z,57.50
2018-06-23T16:09:10.377Z,57.20
2018-06-23T16:11:38.611Z,58.00
2018-06-23T16:14:06.942Z,58.10
2018-06-23T16:16:35.181Z,57.80
2018-06-23T16:19:03.381Z,58.70
2018-06-23T16:21:31.638Z,59.20
2018-06-23T16:23:59.872Z,58.60
2018-06-23T16:26:28.101Z,58.00
2018-06-23T16:28:56.272Z,58.30
2018-06-23T16:31:24.453Z,57.90
2018-06-23T16:33:52.729Z,58.50
2018-06-23T16:36:20.989Z,58.70
2018-06-23T16:38:49.224Z,58.70
2018-06-23T16:41:17.458Z,59.50
2018-06-23T16:43:46.028Z,60.60
2018-06-23T16:46:15.725Z,61.20
2018-06-23T16:48:44.033Z,62.10
2018-06-23T16:51:12.246Z,62.40
2018-06-23T16:53:40.489Z,62.40
2018-06-23T16:56:08.697Z,62.40
2018-06-23T16:58:36.940Z,62.30
2018-06-23T17:01:05.202Z,62.80
2018-06-23T17:03:33.460Z,63.20
2018-06-23T17:06:02.730Z,63.80
2018-06-23T17:08:30.972Z,64.00
2018-06-23T17:10:59.250Z,64.30
2018-06-23T17:13:27.463Z,65.00
2018-06-23T17:15:55.676Z,64.50
2018-06-23T17:18:23.984Z,64.70
2018-06-23T17:20:52.287Z,64.80
2018-06-23T17:23:20.550Z,65.40
2018-06-23T17:25:48.749Z,65.90
2018-06-23T17:28:16.951Z,66.10
2018-06-23T17:30:45.148Z,66.40
2018-06-23T17:33:13.341Z,66.60
2018-06-23T17:35:41.534Z,66.90
2018-06-23T17:38:09.735Z,66.90
2018-06-23T17:40:37.917Z,66.70
2018-06-23T17:43:09.113Z,67.30
2018-06-23T17:45:37.356Z,67.90
2018-06-23T17:48:05.601Z,68.40
2018-06-23T17:50:33.826Z,69.00
2018-06-23T17:53:02.081Z,69.50
2018-06-23T17:55:30.740Z,69.90
2018-06-23T17:57:58.991Z,70.40
2018-06-23T18:00:27.170Z,70.90
2018-06-23T18:02:55.434Z,71.20
2018-06-23T18:05:23.709Z,71.90
2018-06-23T18:07:51.929Z,72.40
2018-06-23T18:10:20.140Z,72.90
2018-06-23T18:12:48.365Z,73.20
2018-06-23T18:15:16.591Z,74.20
2018-06-23T18:17:44.803Z,74.30
2018-06-23T18:20:13.005Z,74.80
2018-06-23T18:22:41.261Z,74.80
2018-06-23T18:25:09.458Z,75.10
2018-06-23T18:27:37.652Z,75.40
2018-06-23T18:30:07.636Z,75.60
2018-06-23T18:32:35.902Z,76.10
2018-06-23T18:35:04.943Z,76.10
2018-06-23T18:37:35.758Z,76.50
2018-06-23T18:40:04.368Z,76.70
2018-06-23T18:42:32.613Z,77.10
2018-06-23T18:47:28.787Z,77.20
2018-06-23T18:49:57.001Z,77.50
2018-06-23T18:52:25.263Z,77.80
2018-06-23T18:54:53.573Z,78.20
2018-06-23T18:57:21.889Z,77.90
2018-06-23T18:59:50.754Z,79.30
2018-06-23T19:04:47.937Z,79.10
2018-06-23T19:07:16.136Z,79.20
2018-06-23T19:09:44.365Z,79.70
2018-06-23T19:14:47.126Z,80.40
2018-06-23T19:17:15.895Z,80.50
2018-06-23T19:19:45.173Z,80.00
2018-06-23T19:22:13.385Z,80.30
2018-06-23T19:24:41.634Z,80.90
2018-06-23T19:27:09.893Z,81.30
2018-06-23T19:29:38.137Z,81.60
2018-06-23T19:32:06.463Z,81.80
2018-06-23T19:34:34.841Z,82.20
2018-06-23T19:37:03.246Z,82.40
2018-06-23T19:39:31.480Z,82.70
2018-06-23T19:41:59.699Z,82.90
2018-06-23T19:44:32.627Z,83.20
2018-06-23T19:47:00.884Z,83.50
2018-06-23T19:49:29.133Z,82.80
2018-06-23T19:51:57.387Z,82.80
2018-06-23T19:54:25.696Z,82.70
2018-06-23T19:56:53.993Z,82.90
2018-06-23T19:59:22.496Z,82.90
2018-06-23T21:23:49.520Z,82.40
2018-06-23T21:26:17.839Z,85.10
2018-06-23T21:28:46.189Z,85.50
2018-06-23T21:31:14.548Z,85.50
2018-06-23T21:33:42.794Z,85.70
2018-06-23T21:36:11.052Z,86.00
2018-06-23T21:38:39.280Z,86.10
2018-06-23T21:41:07.494Z,85.90
2018-06-23T21:43:36.367Z,86.00
2018-06-23T21:46:04.661Z,86.20
2018-06-23T21:48:32.958Z,86.60
2018-06-23T21:51:02.275Z,86.60
2018-06-23T21:53:30.611Z,86.70
2018-06-23T21:55:58.928Z,86.90
2018-06-23T21:58:27.285Z,86.80
2018-06-23T22:00:55.510Z,87.00
2018-06-23T22:03:23.783Z,87.00
2018-06-23T22:05:52.005Z,87.30
2018-06-23T22:08:20.245Z,87.30
2018-06-23T22:10:49.150Z,87.70
2018-06-23T22:13:17.374Z,88.10
2018-06-23T22:15:45.593Z,87.90
2018-06-23T22:18:13.809Z,88.50
2018-06-23T22:20:42.646Z,88.50
2018-06-23T22:23:10.857Z,89.00
2018-06-23T22:25:39.149Z,89.00
2018-06-23T22:28:07.655Z,89.60
2018-06-23T22:30:35.847Z,89.40
2018-06-23T22:33:04.139Z,89.90
2018-06-23T22:35:32.353Z,89.90
2018-06-23T22:38:00.580Z,90.00
2018-06-23T22:40:28.853Z,90.30
2018-06-23T22:42:58.065Z,90.30
2018-06-23T22:45:26.256Z,90.60
2018-06-23T22:47:54.445Z,90.50
2018-06-23T22:50:22.617Z,90.60
2018-06-23T22:52:50.795Z,90.70
2018-06-23T22:55:18.962Z,90.80
2018-06-23T22:57:47.241Z,90.90
2018-06-23T23:00:15.517Z,90.90
